sim
Sign-in with your pilot id or email,
or register
Callsign
Passwort

Schedule Details

Flight Number: RYR8587
Departure: London Stansted Airport (EGSS) at 14:30
Arrival: Thessaloniki International Airport (LGTS) at 17:40
Route: Ryanair Passenger Schedule. Enter filed route here before submitting Pirep.

Weather Information
Getting current METAR information for EGSS 252250Z AUTO 15007KT 9999 NCD 08/05 Q1006
Getting current METAR information for LGTS 252250Z VRB02KT CAVOK 15/12 Q1020 NOSIG

Schedule Frequency

Route Map